createdAt,value
2018-05-13T00:00:40.865Z,16.90
2018-05-13T00:03:09.161Z,16.90
2018-05-13T00:05:36.674Z,16.90
2018-05-13T00:08:04.195Z,16.90
2018-05-13T00:10:32.500Z,16.80
2018-05-13T00:13:00.045Z,16.80
2018-05-13T00:15:30.026Z,16.80
2018-05-13T00:17:57.568Z,16.70
2018-05-13T00:20:25.074Z,16.70
2018-05-13T00:22:52.583Z,16.60
2018-05-13T00:25:20.113Z,16.70
2018-05-13T00:27:47.634Z,16.60
2018-05-13T00:30:15.200Z,16.60
2018-05-13T00:32:43.577Z,16.50
2018-05-13T00:35:11.058Z,16.40
2018-05-13T00:37:38.580Z,16.50
2018-05-13T00:40:06.890Z,16.40
2018-05-13T00:42:34.419Z,16.40
2018-05-13T00:45:01.953Z,16.50
2018-05-13T00:47:29.897Z,16.50
2018-05-13T00:49:57.409Z,16.40
2018-05-13T00:52:24.936Z,16.30
2018-05-13T00:54:54.091Z,16.30
2018-05-13T00:57:21.610Z,16.30
2018-05-13T00:59:49.315Z,16.30
2018-05-13T01:02:16.868Z,16.20
2018-05-13T01:04:45.184Z,16.30
2018-05-13T01:07:12.776Z,16.20
2018-05-13T01:09:41.089Z,16.20
2018-05-13T01:12:08.650Z,16.10
2018-05-13T01:14:36.167Z,16.20
2018-05-13T01:17:04.457Z,16.10
2018-05-13T01:19:32.746Z,16.20
2018-05-13T01:22:00.285Z,16.10
2018-05-13T01:24:27.827Z,16.10
2018-05-13T01:26:55.346Z,16.10
2018-05-13T01:29:22.913Z,16.10
2018-05-13T01:31:50.452Z,16.00
2018-05-13T01:34:17.990Z,16.10
2018-05-13T01:36:45.516Z,16.00
2018-05-13T01:39:13.062Z,16.00
2018-05-13T01:41:41.000Z,16.00
2018-05-13T01:44:08.529Z,16.00
2018-05-13T01:46:36.834Z,16.00
2018-05-13T01:49:04.372Z,15.90
2018-05-13T01:51:31.895Z,15.90
2018-05-13T01:53:59.452Z,15.90
2018-05-13T01:56:26.998Z,15.90
2018-05-13T01:58:54.532Z,15.90
2018-05-13T02:01:22.064Z,15.90
2018-05-13T02:03:49.721Z,15.80
2018-05-13T02:06:17.349Z,15.90
2018-05-13T02:08:44.885Z,15.70
2018-05-13T02:11:12.412Z,15.80
2018-05-13T02:13:39.946Z,15.70
2018-05-13T02:16:07.505Z,15.80
2018-05-13T02:18:35.837Z,15.70
2018-05-13T02:21:03.363Z,15.70
2018-05-13T02:23:30.887Z,15.70
2018-05-13T02:25:59.193Z,15.60
2018-05-13T02:28:26.709Z,15.60
2018-05-13T02:30:54.251Z,15.50
2018-05-13T02:33:21.879Z,15.60
2018-05-13T02:35:49.425Z,15.60
2018-05-13T02:38:16.966Z,15.60
2018-05-13T02:40:44.604Z,15.60
2018-05-13T02:43:12.909Z,15.50
2018-05-13T02:45:40.604Z,15.50
2018-05-13T02:48:08.126Z,15.50
2018-05-13T02:50:36.434Z,15.60
2018-05-13T02:53:03.967Z,15.50
2018-05-13T02:55:31.500Z,15.60
2018-05-13T02:57:59.105Z,15.60
2018-05-13T03:00:26.646Z,15.60
2018-05-13T03:02:54.228Z,15.50
2018-05-13T03:05:21.782Z,15.50
2018-05-13T03:07:49.738Z,15.50
2018-05-13T03:10:17.401Z,15.50
2018-05-13T03:12:44.950Z,15.50
2018-05-13T03:15:12.477Z,15.50
2018-05-13T03:17:40.208Z,15.50
2018-05-13T03:20:07.858Z,15.40
2018-05-13T03:22:35.394Z,15.40
2018-05-13T03:25:02.952Z,15.40
2018-05-13T03:27:30.476Z,15.30
2018-05-13T03:29:58.006Z,15.40
2018-05-13T03:32:25.527Z,15.40
2018-05-13T03:34:53.054Z,15.40
2018-05-13T03:37:20.666Z,15.30
2018-05-13T03:39:48.223Z,15.30
2018-05-13T03:42:15.749Z,15.40
2018-05-13T03:44:43.266Z,15.30
2018-05-13T03:47:10.990Z,15.30
2018-05-13T03:49:38.456Z,15.20
2018-05-13T03:52:05.975Z,15.30
2018-05-13T03:54:33.498Z,15.30
2018-05-13T03:57:01.024Z,15.30
2018-05-13T03:59:28.654Z,15.30
2018-05-13T04:01:56.211Z,15.30
2018-05-13T04:04:23.734Z,15.30
2018-05-13T04:06:51.316Z,15.30
2018-05-13T04:09:30.777Z,15.30
2018-05-13T04:12:10.790Z,15.20
2018-05-13T04:14:50.194Z,15.20
2018-05-13T04:17:17.724Z,15.20
2018-05-13T04:19:46.043Z,15.30
2018-05-13T04:22:13.564Z,15.30
2018-05-13T04:24:41.880Z,15.40
2018-05-13T04:27:09.410Z,15.30
2018-05-13T04:29:37.706Z,15.40
2018-05-13T04:32:05.231Z,15.30
2018-05-13T04:34:32.746Z,15.40
2018-05-13T04:37:00.292Z,15.40
2018-05-13T04:39:27.820Z,15.40
2018-05-13T04:41:55.346Z,15.40
2018-05-13T04:44:22.882Z,15.40
2018-05-13T04:46:50.639Z,15.50
2018-05-13T04:49:18.186Z,15.50
2018-05-13T04:51:45.707Z,15.50
2018-05-13T04:54:13.442Z,15.60
2018-05-13T04:56:40.971Z,15.60
2018-05-13T04:59:08.495Z,15.60
2018-05-13T05:01:36.024Z,15.70
2018-05-13T05:04:03.542Z,15.70
2018-05-13T05:06:31.064Z,15.70
2018-05-13T05:08:58.645Z,15.70
2018-05-13T05:11:26.930Z,15.70
2018-05-13T05:13:54.461Z,15.70
2018-05-13T05:16:21.984Z,15.80
2018-05-13T05:18:49.514Z,15.80
2018-05-13T05:21:17.057Z,15.80
2018-05-13T05:23:44.584Z,15.80
2018-05-13T05:26:13.073Z,15.90
2018-05-13T05:28:41.371Z,15.90
2018-05-13T05:31:08.893Z,15.90
2018-05-13T05:33:36.423Z,15.90
2018-05-13T05:36:03.953Z,16.00
2018-05-13T05:38:31.603Z,16.00
2018-05-13T05:40:59.139Z,16.00
2018-05-13T05:43:26.715Z,16.00
2018-05-13T05:45:54.277Z,16.10
2018-05-13T05:48:21.836Z,16.10
2018-05-13T05:50:50.109Z,16.20
2018-05-13T05:53:17.643Z,16.10
2018-05-13T05:55:45.199Z,16.20
2018-05-13T05:58:13.505Z,16.30
2018-05-13T06:00:41.037Z,16.20
2018-05-13T06:03:08.594Z,16.30
2018-05-13T06:05:36.121Z,16.40
2018-05-13T06:08:03.644Z,16.40
2018-05-13T06:10:31.177Z,16.40
2018-05-13T06:12:59.484Z,16.60
2018-05-13T06:15:27.014Z,16.50
2018-05-13T06:17:54.547Z,16.60
2018-05-13T06:20:22.104Z,16.60
2018-05-13T06:22:49.648Z,16.70
2018-05-13T06:25:17.233Z,16.70
2018-05-13T06:27:44.751Z,16.70
2018-05-13T06:30:12.282Z,16.80
2018-05-13T06:32:39.873Z,16.90
2018-05-13T06:35:07.374Z,16.90
2018-05-13T06:37:35.791Z,17.00
2018-05-13T06:40:03.343Z,17.00
2018-05-13T06:42:30.943Z,17.10
2018-05-13T06:44:58.462Z,17.10
2018-05-13T06:47:26.003Z,17.20
2018-05-13T06:49:53.520Z,17.30
2018-05-13T06:52:21.062Z,17.40
2018-05-13T06:54:48.583Z,17.40
2018-05-13T06:57:16.156Z,17.30
2018-05-13T06:59:44.447Z,17.40
2018-05-13T07:02:11.982Z,17.40
2018-05-13T07:04:39.511Z,17.50
2018-05-13T07:07:07.933Z,17.70
2018-05-13T07:09:35.464Z,17.60
2018-05-13T07:12:03.746Z,17.70
2018-05-13T07:14:32.062Z,17.80
2018-05-13T07:16:59.582Z,17.80
2018-05-13T07:19:27.096Z,17.90
2018-05-13T07:21:54.626Z,17.90
2018-05-13T07:24:22.155Z,18.00
2018-05-13T07:26:49.679Z,18.00
2018-05-13T07:29:17.222Z,18.00
2018-05-13T07:31:44.739Z,18.10
2018-05-13T07:34:12.276Z,18.20
2018-05-13T07:36:40.552Z,18.30
2018-05-13T07:39:08.862Z,18.40
2018-05-13T07:41:36.398Z,18.30
2018-05-13T07:44:03.932Z,18.50
2018-05-13T07:46:31.450Z,18.60
2018-05-13T07:48:59.001Z,18.70
2018-05-13T07:51:26.528Z,18.80
2018-05-13T07:53:54.940Z,18.90
2018-05-13T07:56:22.465Z,18.90
2018-05-13T07:58:50.750Z,19.10
2018-05-13T08:01:18.405Z,19.10
2018-05-13T08:03:46.706Z,19.20
2018-05-13T08:06:14.254Z,19.20
2018-05-13T08:08:41.790Z,19.20
2018-05-13T08:11:10.082Z,19.30
2018-05-13T08:13:37.614Z,19.30
2018-05-13T08:16:06.014Z,19.40
2018-05-13T08:18:34.483Z,19.50
2018-05-13T08:21:02.900Z,19.60
2018-05-13T08:23:30.436Z,19.50
2018-05-13T08:25:57.963Z,19.60
2018-05-13T08:28:26.195Z,19.70
2018-05-13T08:30:53.784Z,19.80
2018-05-13T08:33:21.323Z,19.90
2018-05-13T08:35:48.852Z,20.00
2018-05-13T08:38:16.394Z,20.00
2018-05-13T08:40:43.928Z,20.10
2018-05-13T08:43:11.470Z,20.10
2018-05-13T08:45:38.996Z,20.10
2018-05-13T08:48:06.548Z,20.20
2018-05-13T08:50:34.201Z,20.30
2018-05-13T08:53:01.739Z,20.40
2018-05-13T08:55:30.042Z,20.40
2018-05-13T08:57:57.596Z,20.40
2018-05-13T09:00:25.126Z,20.40
2018-05-13T09:02:53.434Z,20.60
2018-05-13T09:05:20.964Z,20.60
2018-05-13T09:07:48.558Z,20.70
2018-05-13T09:10:16.077Z,20.70
2018-05-13T09:12:43.772Z,20.80
2018-05-13T09:15:11.300Z,20.80
2018-05-13T09:17:38.851Z,20.90
2018-05-13T09:20:06.418Z,21.00
2018-05-13T09:22:34.718Z,21.10
2018-05-13T09:25:03.032Z,21.10
2018-05-13T09:27:30.751Z,21.10
2018-05-13T09:29:58.311Z,21.20
2018-05-13T09:32:25.856Z,21.30
2018-05-13T09:34:53.448Z,21.40
2018-05-13T09:37:20.972Z,21.40
2018-05-13T09:39:48.548Z,21.50
2018-05-13T09:42:16.852Z,21.70
2018-05-13T09:44:44.424Z,21.70
2018-05-13T09:47:11.976Z,21.80
2018-05-13T09:49:39.552Z,22.00
2018-05-13T09:52:07.096Z,22.00
2018-05-13T09:54:34.660Z,22.10
2018-05-13T09:57:02.358Z,22.20
2018-05-13T09:59:30.006Z,22.40
2018-05-13T10:01:57.564Z,22.50
2018-05-13T10:04:26.596Z,22.50
2018-05-13T10:06:54.896Z,22.60
2018-05-13T10:09:22.451Z,22.60
2018-05-13T10:11:49.997Z,22.70
2018-05-13T10:14:17.607Z,22.80
2018-05-13T10:16:45.148Z,22.90
2018-05-13T10:19:12.706Z,22.90
2018-05-13T10:21:41.179Z,22.90
2018-05-13T10:24:08.729Z,23.00
2018-05-13T10:26:36.333Z,23.10
2018-05-13T10:29:03.875Z,23.20
2018-05-13T10:31:31.618Z,23.30
2018-05-13T10:33:59.163Z,23.40
2018-05-13T10:36:26.735Z,23.50
2018-05-13T10:38:54.277Z,23.60
2018-05-13T10:41:21.815Z,23.60
2018-05-13T10:43:49.393Z,23.60
2018-05-13T10:46:17.670Z,23.90
2018-05-13T10:48:45.182Z,23.80
2018-05-13T10:51:12.706Z,23.90
2018-05-13T10:53:40.432Z,23.90
2018-05-13T10:56:08.759Z,24.20
2018-05-13T10:58:36.387Z,24.20
2018-05-13T11:01:03.970Z,24.20
2018-05-13T11:03:31.521Z,24.30
2018-05-13T11:05:59.051Z,24.40
2018-05-13T11:08:26.729Z,24.50
2018-05-13T11:10:54.261Z,24.50
2018-05-13T11:13:22.576Z,24.50
2018-05-13T11:15:50.104Z,24.50
2018-05-13T11:18:17.654Z,24.50
2018-05-13T11:20:46.041Z,24.90
2018-05-13T11:23:13.504Z,24.80
2018-05-13T11:25:41.058Z,24.90
2018-05-13T11:28:09.340Z,25.10
2018-05-13T11:30:37.693Z,25.20
2018-05-13T11:33:05.234Z,25.20
2018-05-13T11:35:32.861Z,25.20
2018-05-13T11:38:00.433Z,25.40
2018-05-13T11:40:28.032Z,25.40
2018-05-13T11:42:56.342Z,25.50
2018-05-13T11:45:23.882Z,25.50
2018-05-13T11:47:51.440Z,25.80
2018-05-13T11:50:19.753Z,26.00
2018-05-13T11:52:47.360Z,26.00
2018-05-13T11:55:14.891Z,26.00
2018-05-13T11:57:42.405Z,26.20
2018-05-13T12:00:09.966Z,26.30
2018-05-13T12:02:37.504Z,26.30
2018-05-13T12:05:05.058Z,26.60
2018-05-13T12:07:32.642Z,26.80
2018-05-13T12:10:00.928Z,26.90
2018-05-13T12:12:28.448Z,26.90
2018-05-13T12:14:56.004Z,26.90
2018-05-13T12:17:23.532Z,27.00
2018-05-13T12:19:51.050Z,26.90
2018-05-13T12:22:18.616Z,26.90
2018-05-13T12:24:46.140Z,26.90
2018-05-13T12:27:13.668Z,27.20
2018-05-13T12:29:41.297Z,27.10
2018-05-13T12:32:08.841Z,27.10
2018-05-13T12:34:36.396Z,27.00
2018-05-13T12:37:04.689Z,26.80
2018-05-13T12:39:32.328Z,26.80
2018-05-13T12:42:00.658Z,26.90
2018-05-13T12:44:28.297Z,26.80
2018-05-13T12:46:55.814Z,26.90
2018-05-13T12:49:23.390Z,26.90
2018-05-13T12:51:51.700Z,26.90
2018-05-13T12:54:19.230Z,26.90
2018-05-13T12:56:46.777Z,26.90
2018-05-13T12:59:15.091Z,27.00
2018-05-13T13:01:42.611Z,27.00
2018-05-13T13:04:10.152Z,27.20
2018-05-13T13:06:37.726Z,27.00
2018-05-13T13:09:05.276Z,26.90
2018-05-13T13:11:32.883Z,26.80
2018-05-13T13:14:00.417Z,26.80
2018-05-13T13:16:28.719Z,26.70
2018-05-13T13:18:56.244Z,26.70
2018-05-13T13:21:24.043Z,26.60
2018-05-13T13:23:51.593Z,26.60
2018-05-13T13:26:19.123Z,26.50
2018-05-13T13:28:47.412Z,26.20
2018-05-13T13:31:14.965Z,26.20
2018-05-13T13:33:42.501Z,26.00
2018-05-13T13:36:10.026Z,25.70
2018-05-13T13:38:37.554Z,25.40
2018-05-13T13:41:05.081Z,25.40
2018-05-13T13:43:32.706Z,25.30
2018-05-13T13:46:00.420Z,25.40
2018-05-13T13:48:28.728Z,25.60
2018-05-13T13:50:56.353Z,25.60
2018-05-13T13:53:24.721Z,26.50
2018-05-13T13:55:52.272Z,26.50
2018-05-13T13:58:19.887Z,27.20
2018-05-13T14:00:47.443Z,27.90
2018-05-13T14:03:14.968Z,28.60
2018-05-13T14:05:42.485Z,29.10
2018-05-13T14:08:10.015Z,29.20
2018-05-13T14:10:37.570Z,29.40
2018-05-13T14:13:05.243Z,29.90
2018-05-13T14:15:32.780Z,30.30
2018-05-13T14:18:00.376Z,30.60
2018-05-13T14:20:28.049Z,30.60
2018-05-13T14:22:55.453Z,30.60
2018-05-13T14:25:23.032Z,30.70
2018-05-13T14:27:50.605Z,30.90
2018-05-13T14:30:18.146Z,31.00
2018-05-13T14:32:45.668Z,31.10
2018-05-13T14:35:13.207Z,31.00
2018-05-13T14:37:40.750Z,30.70
2018-05-13T14:40:08.349Z,30.40
2018-05-13T14:42:36.647Z,29.30
2018-05-13T14:45:04.192Z,29.30
2018-05-13T14:47:31.734Z,28.90
2018-05-13T14:49:59.414Z,28.70
2018-05-13T14:52:27.690Z,28.10
2018-05-13T14:54:55.966Z,27.80
2018-05-13T14:57:24.455Z,27.70
2018-05-13T14:59:51.985Z,27.60
2018-05-13T15:02:19.497Z,27.60
2018-05-13T15:04:47.082Z,27.40
2018-05-13T15:07:26.417Z,27.40
2018-05-13T15:09:53.957Z,27.50
2018-05-13T15:12:21.473Z,27.80
2018-05-13T15:14:49.887Z,28.20
2018-05-13T15:17:17.447Z,28.20
2018-05-13T15:19:45.005Z,28.40
2018-05-13T15:22:14.431Z,28.80
2018-05-13T15:24:41.958Z,28.90
2018-05-13T15:27:10.303Z,29.30
2018-05-13T15:29:38.723Z,29.10
2018-05-13T15:32:06.243Z,29.10
2018-05-13T15:34:34.528Z,28.80
2018-05-13T15:37:02.800Z,28.70
2018-05-13T15:39:31.127Z,28.50
2018-05-13T15:41:58.681Z,28.50
2018-05-13T15:44:26.194Z,28.70
2018-05-13T15:46:54.510Z,28.70
2018-05-13T15:49:22.039Z,28.60
2018-05-13T15:51:49.552Z,28.30
2018-05-13T15:54:17.074Z,27.80
2018-05-13T15:56:44.605Z,27.00
2018-05-13T15:59:12.140Z,26.70
2018-05-13T16:01:39.657Z,26.10
2018-05-13T16:04:07.217Z,25.70
2018-05-13T16:06:34.755Z,25.20
2018-05-13T16:09:02.389Z,24.90
2018-05-13T16:11:30.681Z,24.60
2018-05-13T16:13:58.225Z,24.60
2018-05-13T16:16:25.762Z,24.80
2018-05-13T16:18:53.318Z,24.60
2018-05-13T16:21:20.831Z,24.40
2018-05-13T16:23:48.356Z,24.20
2018-05-13T16:26:16.635Z,24.00
2018-05-13T16:28:44.918Z,24.10
2018-05-13T16:31:13.227Z,24.10
2018-05-13T16:33:40.774Z,24.00
2018-05-13T16:36:08.304Z,24.00
2018-05-13T16:38:36.605Z,23.90
2018-05-13T16:41:04.144Z,23.90
2018-05-13T16:43:31.691Z,24.00
2018-05-13T16:45:59.989Z,24.00
2018-05-13T16:48:27.525Z,23.90
2018-05-13T16:50:55.083Z,23.80
2018-05-13T16:53:23.357Z,23.80
2018-05-13T16:55:51.645Z,23.80
2018-05-13T16:58:19.927Z,23.80
2018-05-13T17:00:48.205Z,23.70
2018-05-13T17:03:16.510Z,23.60
2018-05-13T17:05:44.078Z,23.60
2018-05-13T17:08:11.620Z,23.50
2018-05-13T17:10:39.148Z,23.60
2018-05-13T17:13:06.709Z,23.50
2018-05-13T17:15:34.997Z,23.40
2018-05-13T17:18:02.517Z,23.40
2018-05-13T17:20:30.081Z,23.10
2018-05-13T17:22:58.517Z,22.30
2018-05-13T17:25:26.163Z,22.30
2018-05-13T17:27:53.693Z,22.00
2018-05-13T17:30:21.991Z,21.40
2018-05-13T17:32:49.637Z,21.30
2018-05-13T17:35:17.921Z,20.90
2018-05-13T17:37:46.316Z,20.70
2018-05-13T17:40:13.867Z,20.70
2018-05-13T17:42:41.407Z,20.60
2018-05-13T17:45:08.953Z,20.50
2018-05-13T17:47:37.426Z,20.30
2018-05-13T17:50:04.969Z,20.30
2018-05-13T17:52:32.481Z,20.30
2018-05-13T17:55:00.044Z,20.20
2018-05-13T17:57:27.673Z,19.90
2018-05-13T17:59:55.160Z,19.80
2018-05-13T18:02:22.904Z,19.80
2018-05-13T18:04:50.371Z,19.70
2018-05-13T18:07:17.915Z,19.60
2018-05-13T18:09:46.261Z,19.40
2018-05-13T18:12:13.790Z,19.40
2018-05-13T18:14:41.337Z,19.40
2018-05-13T18:17:08.860Z,19.40
2018-05-13T18:19:36.475Z,19.30
2018-05-13T18:22:03.993Z,19.20
2018-05-13T18:24:31.535Z,19.20
2018-05-13T18:26:59.054Z,19.20
2018-05-13T18:29:26.601Z,19.30
2018-05-13T18:31:54.131Z,19.40
2018-05-13T18:34:22.453Z,18.90
2018-05-13T18:36:49.983Z,18.80
2018-05-13T18:39:17.624Z,18.80
2018-05-13T18:41:45.241Z,18.80
2018-05-13T18:44:12.783Z,18.80
2018-05-13T18:46:40.316Z,18.80
2018-05-13T18:49:07.871Z,18.70
2018-05-13T18:51:35.409Z,18.70
2018-05-13T18:54:03.741Z,18.60
2018-05-13T18:56:31.370Z,18.60
2018-05-13T18:58:58.972Z,18.50
2018-05-13T19:01:26.462Z,18.50
2018-05-13T19:03:54.782Z,18.60
2018-05-13T19:06:22.329Z,18.60
2018-05-13T19:08:49.990Z,18.50
2018-05-13T19:11:17.522Z,18.40
2018-05-13T19:13:45.823Z,18.30
2018-05-13T19:16:13.387Z,18.30
2018-05-13T19:18:40.953Z,18.20
2018-05-13T19:21:08.519Z,18.00
2018-05-13T19:23:36.051Z,18.00
2018-05-13T19:26:03.619Z,17.90
2018-05-13T19:28:31.204Z,17.80
2018-05-13T19:30:59.012Z,17.80
2018-05-13T19:33:26.519Z,17.70
2018-05-13T19:35:54.891Z,17.70
2018-05-13T19:38:22.427Z,17.60
2018-05-13T19:40:50.731Z,17.60
2018-05-13T19:43:18.509Z,17.50
2018-05-13T19:45:46.053Z,17.50
2018-05-13T19:48:13.599Z,17.40
2018-05-13T19:50:41.147Z,17.40
2018-05-13T19:53:08.681Z,17.30
2018-05-13T19:55:36.201Z,17.30
2018-05-13T19:58:03.762Z,17.40
2018-05-13T20:00:31.371Z,17.30
2018-05-13T20:02:59.744Z,17.20
2018-05-13T20:05:28.049Z,17.20
2018-05-13T20:07:55.590Z,17.20
2018-05-13T20:10:23.351Z,17.20
2018-05-13T20:12:51.629Z,17.10
2018-05-13T20:15:19.914Z,17.10
2018-05-13T20:17:48.343Z,17.10
2018-05-13T20:20:15.883Z,17.10
2018-05-13T20:22:55.166Z,17.20
2018-05-13T20:25:23.454Z,17.10
2018-05-13T20:27:51.745Z,17.10
2018-05-13T20:30:19.300Z,17.10
2018-05-13T20:32:46.953Z,17.20
2018-05-13T20:35:14.477Z,17.10
2018-05-13T20:37:42.013Z,17.10
2018-05-13T20:40:09.758Z,17.10
2018-05-13T20:42:37.303Z,17.10
2018-05-13T20:45:04.875Z,17.10
2018-05-13T20:47:32.423Z,17.10
2018-05-13T20:49:59.945Z,17.20
2018-05-13T20:52:27.487Z,17.20
2018-05-13T20:54:55.045Z,17.10
2018-05-13T20:57:22.571Z,17.10
2018-05-13T20:59:50.120Z,17.10
2018-05-13T21:02:17.658Z,17.00
2018-05-13T21:04:45.241Z,17.10
2018-05-13T21:07:12.780Z,17.10
2018-05-13T21:09:40.301Z,17.10
2018-05-13T21:12:07.861Z,17.10
2018-05-13T21:14:35.422Z,17.20
2018-05-13T21:17:03.040Z,17.20
2018-05-13T21:19:30.560Z,17.10
2018-05-13T21:21:58.853Z,17.20
2018-05-13T21:24:27.212Z,17.20
2018-05-13T21:26:54.713Z,17.20
2018-05-13T21:29:22.255Z,17.20
2018-05-13T21:31:49.792Z,17.20
2018-05-13T21:34:17.489Z,17.20
2018-05-13T21:36:45.029Z,17.20
2018-05-13T21:39:12.590Z,17.20
2018-05-13T21:41:40.114Z,17.30
2018-05-13T21:44:08.465Z,17.10
2018-05-13T21:46:35.999Z,17.10
2018-05-13T21:49:03.519Z,17.20
2018-05-13T21:51:31.821Z,17.20
2018-05-13T21:53:59.327Z,17.20
2018-05-13T21:56:26.867Z,17.20
2018-05-13T21:58:54.399Z,17.20
2018-05-13T22:01:22.029Z,17.10
2018-05-13T22:03:50.533Z,17.10
2018-05-13T22:06:18.088Z,17.00
2018-05-13T22:08:45.609Z,17.10
2018-05-13T22:11:13.169Z,17.10
2018-05-13T22:13:40.762Z,17.10
2018-05-13T22:16:09.041Z,17.10
2018-05-13T22:18:37.342Z,17.10
2018-05-13T22:21:04.865Z,17.00
2018-05-13T22:23:33.168Z,17.10
2018-05-13T22:26:00.685Z,17.10
2018-05-13T22:28:28.235Z,17.00
2018-05-13T22:30:55.753Z,17.00
2018-05-13T22:33:23.280Z,17.00
2018-05-13T22:35:51.576Z,17.00
2018-05-13T22:38:19.141Z,16.90
2018-05-13T22:40:46.663Z,17.00
2018-05-13T22:43:15.078Z,16.90
2018-05-13T22:45:42.626Z,16.90
2018-05-13T22:48:10.153Z,16.90
2018-05-13T22:50:37.842Z,16.90
2018-05-13T22:53:05.359Z,16.90
2018-05-13T22:55:32.875Z,16.90
2018-05-13T22:58:00.479Z,16.80
2018-05-13T23:00:28.024Z,16.80
2018-05-13T23:02:55.566Z,16.80
2018-05-13T23:05:23.127Z,16.90
2018-05-13T23:07:50.640Z,16.90
2018-05-13T23:10:18.199Z,16.80
2018-05-13T23:12:46.493Z,16.80
2018-05-13T23:15:14.024Z,16.80
2018-05-13T23:17:41.569Z,16.90
2018-05-13T23:20:09.113Z,16.90
2018-05-13T23:22:36.659Z,16.80
2018-05-13T23:25:04.182Z,16.80
2018-05-13T23:27:31.713Z,16.70
2018-05-13T23:29:59.417Z,16.60
2018-05-13T23:32:27.005Z,16.60
2018-05-13T23:34:54.532Z,16.50
2018-05-13T23:37:22.063Z,16.40
2018-05-13T23:39:50.359Z,16.30
2018-05-13T23:42:17.869Z,16.30
2018-05-13T23:44:45.411Z,16.30
2018-05-13T23:47:13.048Z,16.20
2018-05-13T23:49:40.569Z,16.30
2018-05-13T23:52:08.881Z,16.30
2018-05-13T23:54:36.409Z,16.30
2018-05-13T23:57:03.936Z,16.40
2018-05-13T23:59:31.562Z,16.40
